Time;durP1;ratioP1;P1;durP2;ratioP2;P2;SDS_P1;SDS_P2;PMS_P1;PMS_P2;Temp;Humidity;BMP_temperature;BMP_pressure;BME280_temperature;BME280_humidity;BME280_pressure;Samples;Min_cycle;Max_cycle;Signal;HPM_P1;HPM_P2
2021/09/04 00:01:27;;;;;;;640.78;426.80;;;;;;;;;;5008434;28;20055;-74
2021/09/04 00:03:53;;;;;;;623.90;405.75;;;;;;;;;;5009292;28;20112;-75
2021/09/04 00:06:19;;;;;;;648.13;433.38;;;;;;;;;;5008544;28;20104;-74
2021/09/04 00:08:45;;;;;;;649.47;436.95;;;;;;;;;;5009729;28;20608;-74
2021/09/04 00:11:11;;;;;;;658.58;448.20;;;;;;;;;;5009029;28;20164;-74
2021/09/04 00:13:38;;;;;;;644.80;426.80;;;;;;;;;;5023975;28;20073;-74
2021/09/04 00:16:04;;;;;;;645.83;431.83;;;;;;;;;;5007104;28;20544;-74
2021/09/04 00:18:33;;;;;;;666.60;465.88;;;;;;;;;;5013635;28;20113;-74
2021/09/04 00:20:59;;;;;;;678.93;487.17;;;;;;;;;;5008476;28;20065;-74
2021/09/04 00:23:25;;;;;;;675.83;480.77;;;;;;;;;;5007746;28;20729;-73
2021/09/04 00:25:51;;;;;;;678.00;482.17;;;;;;;;;;5025846;28;20106;-74
2021/09/04 00:28:17;;;;;;;705.03;519.25;;;;;;;;;;5008635;28;20132;-74
2021/09/04 00:30:43;;;;;;;661.97;452.33;;;;;;;;;;5004471;28;20025;-74
2021/09/04 00:33:09;;;;;;;662.08;454.52;;;;;;;;;;5008603;28;20023;-74
2021/09/04 00:35:35;;;;;;;667.45;464.27;;;;;;;;;;5009032;28;20112;-74
2021/09/04 00:38:01;;;;;;;664.13;454.75;;;;;;;;;;5026064;28;20037;-74
2021/09/04 00:40:27;;;;;;;604.88;363.42;;;;;;;;;;5008394;28;20087;-74
2021/09/04 00:42:53;;;;;;;590.60;342.25;;;;;;;;;;5008734;28;20049;-74
2021/09/04 00:45:19;;;;;;;581.97;327.88;;;;;;;;;;5008091;28;20025;-74
2021/09/04 00:47:51;;;;;;;602.63;362.13;;;;;;;;;;5008371;28;20026;-74
2021/09/04 00:50:17;;;;;;;745.05;586.33;;;;;;;;;;5008968;28;20037;-74
2021/09/04 00:52:43;;;;;;;753.78;599.38;;;;;;;;;;5010124;28;20022;-74
2021/09/04 00:55:09;;;;;;;749.90;590.38;;;;;;;;;;5010350;28;20046;-74
2021/09/04 00:57:36;;;;;;;753.72;598.20;;;;;;;;;;5026784;28;20083;-74
2021/09/04 01:00:02;;;;;;;755.35;599.97;;;;;;;;;;5011786;28;20025;-74
2021/09/04 01:02:30;;;;;;;753.95;599.67;;;;;;;;;;5028220;28;20412;-74
2021/09/04 01:04:56;;;;;;;755.10;602.28;;;;;;;;;;5029520;28;20022;-74
2021/09/04 01:07:23;;;;;;;765.95;618.00;;;;;;;;;;5007652;28;20029;-74
2021/09/04 01:09:53;;;;;;;757.33;601.65;;;;;;;;;;5019961;28;20025;-74
2021/09/04 01:12:20;;;;;;;762.67;614.72;;;;;;;;;;5003018;28;20042;-74
2021/09/04 01:14:46;;;;;;;763.67;614.97;;;;;;;;;;5026295;28;20112;-74
2021/09/04 01:17:12;;;;;;;776.17;630.97;;;;;;;;;;5025646;28;20120;-74
2021/09/04 01:19:38;;;;;;;772.58;626.15;;;;;;;;;;5025830;28;20041;-74
2021/09/04 01:22:04;;;;;;;771.63;622.75;;;;;;;;;;5019694;28;20548;-74
2021/09/04 01:24:30;;;;;;;772.65;622.33;;;;;;;;;;5024839;28;20025;-74
2021/09/04 01:26:56;;;;;;;761.42;611.28;;;;;;;;;;5022764;28;20029;-74
2021/09/04 01:29:23;;;;;;;768.42;623.17;;;;;;;;;;4999111;28;20030;-74
2021/09/04 01:31:49;;;;;;;763.92;613.80;;;;;;;;;;5005893;28;20425;-74
2021/09/04 01:34:15;;;;;;;719.60;543.28;;;;;;;;;;5007978;28;20036;-74
2021/09/04 01:36:41;;;;;;;714.47;535.88;;;;;;;;;;5004146;28;20453;-74
2021/09/04 01:39:08;;;;;;;408.92;139.43;;;;;;;;;;5008049;28;20029;-74
2021/09/04 01:41:34;;;;;;;394.48;137.20;;;;;;;;;;5010680;28;20103;-74
2021/09/04 01:44:00;;;;;;;472.35;271.02;;;;;;;;;;5027422;28;20032;-74
2021/09/04 01:46:27;;;;;;;728.08;553.90;;;;;;;;;;5007977;28;20513;-73
2021/09/04 01:48:53;;;;;;;729.03;562.40;;;;;;;;;;5007226;28;20030;-74
2021/09/04 01:51:19;;;;;;;669.50;466.17;;;;;;;;;;5027916;28;20061;-74
2021/09/04 01:53:45;;;;;;;647.20;427.45;;;;;;;;;;5028718;28;20071;-74
2021/09/04 01:56:12;;;;;;;646.22;428.77;;;;;;;;;;5028480;28;20021;-74
2021/09/04 01:58:38;;;;;;;607.53;366.27;;;;;;;;;;5010951;28;20037;-74
2021/09/04 02:01:07;;;;;;;617.65;388.38;;;;;;;;;;5024373;28;20030;-73
2021/09/04 02:03:34;;;;;;;568.08;300.63;;;;;;;;;;5028573;28;20148;-74
2021/09/04 02:06:00;;;;;;;564.20;300.92;;;;;;;;;;5012275;28;20029;-74
2021/09/04 02:08:26;;;;;;;546.83;265.33;;;;;;;;;;5010727;28;20025;-74
2021/09/04 02:10:52;;;;;;;546.15;268.10;;;;;;;;;;5022356;28;20030;-74
2021/09/04 02:13:18;;;;;;;530.55;245.38;;;;;;;;;;5028822;28;20419;-74
2021/09/04 02:15:44;;;;;;;512.25;218.55;;;;;;;;;;5025595;28;20030;-74
2021/09/04 02:18:10;;;;;;;506.02;209.43;;;;;;;;;;5021416;28;20026;-74
2021/09/04 02:20:36;;;;;;;524.20;236.20;;;;;;;;;;5005505;28;20112;-74
2021/09/04 02:23:02;;;;;;;513.47;218.60;;;;;;;;;;5029683;28;20612;-73
2021/09/04 02:25:28;;;;;;;523.17;232.10;;;;;;;;;;5011240;28;20029;-73
2021/09/04 02:27:54;;;;;;;875.92;778.85;;;;;;;;;;5005581;28;20059;-74
2021/09/04 02:30:20;;;;;;;874.47;777.95;;;;;;;;;;5027893;28;20041;-73
2021/09/04 02:32:46;;;;;;;871.58;774.97;;;;;;;;;;5011672;28;20060;-74
2021/09/04 02:35:12;;;;;;;864.20;767.30;;;;;;;;;;5008408;28;20565;-73
2021/09/04 02:37:38;;;;;;;864.15;768.17;;;;;;;;;;5008841;28;20025;-73
2021/09/04 02:40:04;;;;;;;854.25;757.92;;;;;;;;;;5028383;28;20100;-73
2021/09/04 02:42:30;;;;;;;860.67;763.67;;;;;;;;;;5010894;28;20053;-74
2021/09/04 02:44:56;;;;;;;848.80;753.03;;;;;;;;;;5011197;28;20034;-74
2021/09/04 02:47:22;;;;;;;839.92;739.67;;;;;;;;;;5010915;28;20579;-74
2021/09/04 02:49:48;;;;;;;847.08;744.80;;;;;;;;;;5009858;28;20034;-74
2021/09/04 02:52:14;;;;;;;831.83;722.00;;;;;;;;;;5025837;28;20022;-74
2021/09/04 02:54:40;;;;;;;831.38;731.20;;;;;;;;;;5008859;28;20521;-74
2021/09/04 02:57:07;;;;;;;819.88;711.85;;;;;;;;;;5009216;28;20128;-74
2021/09/04 02:59:33;;;;;;;867.72;771.95;;;;;;;;;;5007441;28;20077;-74
2021/09/04 03:01:59;;;;;;;859.80;764.10;;;;;;;;;;5024859;28;20539;-74
2021/09/04 03:04:25;;;;;;;871.30;775.42;;;;;;;;;;5026116;28;20021;-74
2021/09/04 03:06:51;;;;;;;856.92;760.58;;;;;;;;;;5021092;28;20038;-74
2021/09/04 03:09:17;;;;;;;845.65;746.78;;;;;;;;;;5026661;28;20258;-74
2021/09/04 03:11:43;;;;;;;839.75;734.92;;;;;;;;;;5006215;28;20056;-74
2021/09/04 03:14:12;;;;;;;843.15;743.92;;;;;;;;;;5007441;28;20445;-74
2021/09/04 03:16:38;;;;;;;770.03;634.58;;;;;;;;;;5027062;28;20119;-74
2021/09/04 03:19:04;;;;;;;760.67;621.70;;;;;;;;;;5009573;28;20473;-74
2021/09/04 03:21:30;;;;;;;335.73;266.58;;;;;;;;;;5010421;28;20052;-74
2021/09/04 03:23:56;;;;;;;682.13;490.80;;;;;;;;;;5025868;28;20029;-74
2021/09/04 03:26:22;;;;;;;669.85;473.10;;;;;;;;;;5008071;28;20041;-74
2021/09/04 03:28:48;;;;;;;658.80;454.98;;;;;;;;;;5022971;28;20166;-74
2021/09/04 03:31:14;;;;;;;611.25;383.48;;;;;;;;;;5027180;28;20096;-74
2021/09/04 03:33:40;;;;;;;625.47;400.75;;;;;;;;;;5010164;28;20044;-73
2021/09/04 03:36:06;;;;;;;616.83;384.13;;;;;;;;;;5023614;28;20034;-73
2021/09/04 03:38:32;;;;;;;608.05;373.42;;;;;;;;;;5024602;28;20057;-75
2021/09/04 03:40:58;;;;;;;945.20;424.17;;;;;;;;;;5009688;28;20477;-74
2021/09/04 03:43:24;;;;;;;682.50;491.52;;;;;;;;;;5028492;28;20048;-74
2021/09/04 03:45:50;;;;;;;656.65;452.85;;;;;;;;;;5007998;28;20124;-74
2021/09/04 03:48:16;;;;;;;687.38;506.73;;;;;;;;;;5006541;28;20537;-74
2021/09/04 03:50:42;;;;;;;615.95;390.00;;;;;;;;;;5009187;28;20421;-74
2021/09/04 03:53:08;;;;;;;609.13;380.40;;;;;;;;;;5010383;28;20386;-74
2021/09/04 03:55:34;;;;;;;577.95;323.55;;;;;;;;;;5019564;28;20321;-74
2021/09/04 03:58:00;;;;;;;561.63;293.52;;;;;;;;;;5025745;28;20025;-74
2021/09/04 04:00:26;;;;;;;479.05;186.35;;;;;;;;;;5019569;28;20392;-74
2021/09/04 04:02:52;;;;;;;498.63;211.95;;;;;;;;;;5003746;28;20084;-74
2021/09/04 04:05:18;;;;;;;460.73;177.30;;;;;;;;;;5008221;28;20415;-74
2021/09/04 04:07:44;;;;;;;834.05;733.72;;;;;;;;;;5009548;28;20505;-73
2021/09/04 04:10:10;;;;;;;828.05;732.47;;;;;;;;;;5010048;28;20030;-73
2021/09/04 04:12:36;;;;;;;828.28;735.03;;;;;;;;;;5007197;28;20025;-73
2021/09/04 04:15:02;;;;;;;838.15;745.50;;;;;;;;;;5009484;28;20507;-74
2021/09/04 04:17:30;;;;;;;829.00;729.65;;;;;;;;;;5024730;28;20624;-74
2021/09/04 04:19:56;;;;;;;831.97;738.15;;;;;;;;;;5020530;28;20040;-74
2021/09/04 04:22:22;;;;;;;830.35;732.38;;;;;;;;;;5007783;28;20037;-73
2021/09/04 04:24:48;;;;;;;826.53;731.58;;;;;;;;;;5008920;28;20037;-73
2021/09/04 04:27:14;;;;;;;825.20;724.63;;;;;;;;;;5024398;28;20029;-74
2021/09/04 04:29:40;;;;;;;827.95;732.60;;;;;;;;;;5027058;28;20516;-74
2021/09/04 04:32:06;;;;;;;818.45;720.67;;;;;;;;;;5008653;28;20117;-74
2021/09/04 04:34:32;;;;;;;817.75;718.25;;;;;;;;;;5009949;28;20104;-74
2021/09/04 04:36:58;;;;;;;781.67;670.08;;;;;;;;;;5024446;28;20594;-74
2021/09/04 04:39:24;;;;;;;782.92;668.80;;;;;;;;;;5009660;28;20474;-73
2021/09/04 04:41:50;;;;;;;777.22;656.42;;;;;;;;;;5004501;28;20228;-74
2021/09/04 04:44:16;;;;;;;462.42;213.82;;;;;;;;;;5008630;28;20033;-74
2021/09/04 04:46:42;;;;;;;583.60;345.08;;;;;;;;;;5021958;28;20041;-74
2021/09/04 04:49:07;;;;;;;584.63;338.88;;;;;;;;;;5006198;28;20117;-74
2021/09/04 04:51:35;;;;;;;587.05;350.67;;;;;;;;;;5007423;28;20097;-73
2021/09/04 04:54:01;;;;;;;574.97;333.25;;;;;;;;;;5008781;28;20466;-73
2021/09/04 04:56:27;;;;;;;576.35;333.08;;;;;;;;;;5006123;28;20026;-73
2021/09/04 04:58:53;;;;;;;587.83;348.45;;;;;;;;;;5008696;28;20044;-73
2021/09/04 05:01:19;;;;;;;586.53;345.38;;;;;;;;;;5020108;28;20029;-74
2021/09/04 05:03:45;;;;;;;588.33;350.42;;;;;;;;;;5025174;28;20112;-74
2021/09/04 05:06:11;;;;;;;593.25;357.10;;;;;;;;;;5000254;28;20028;-74
2021/09/04 05:08:37;;;;;;;587.25;349.63;;;;;;;;;;5008617;28;20021;-73
2021/09/04 05:11:03;;;;;;;595.53;367.13;;;;;;;;;;5019186;28;20028;-73
2021/09/04 05:13:29;;;;;;;590.03;355.60;;;;;;;;;;5005088;28;20056;-75
2021/09/04 05:15:55;;;;;;;584.22;353.15;;;;;;;;;;5007116;28;20027;-74
2021/09/04 05:18:21;;;;;;;587.17;364.20;;;;;;;;;;5023503;28;20104;-74
2021/09/04 05:20:48;;;;;;;588.67;356.67;;;;;;;;;;5026818;28;20029;-74
2021/09/04 05:23:16;;;;;;;592.67;363.15;;;;;;;;;;5026079;28;20424;-73
2021/09/04 05:25:42;;;;;;;586.58;357.23;;;;;;;;;;5007948;28;20396;-73
2021/09/04 05:28:08;;;;;;;597.72;371.20;;;;;;;;;;5005344;28;20026;-74
2021/09/04 05:30:34;;;;;;;585.88;352.50;;;;;;;;;;5024091;28;20100;-73
2021/09/04 05:33:00;;;;;;;582.53;347.98;;;;;;;;;;5009282;28;20294;-73
2021/09/04 05:35:29;;;;;;;581.85;348.05;;;;;;;;;;5025728;28;20026;-74
2021/09/04 05:37:55;;;;;;;587.00;356.80;;;;;;;;;;5026883;28;20025;-74
2021/09/04 05:40:21;;;;;;;587.22;361.35;;;;;;;;;;5008282;28;20026;-72
2021/09/04 05:42:47;;;;;;;586.30;355.58;;;;;;;;;;5019826;28;20047;-73
2021/09/04 05:45:13;;;;;;;570.40;318.50;;;;;;;;;;5024664;28;20025;-76
2021/09/04 05:47:39;;;;;;;578.50;330.55;;;;;;;;;;5026521;28;20038;-76
2021/09/04 05:50:06;;;;;;;569.00;320.60;;;;;;;;;;5007862;28;20021;-76
2021/09/04 05:52:32;;;;;;;580.70;349.35;;;;;;;;;;5007308;28;20525;-73
2021/09/04 05:54:58;;;;;;;582.22;339.48;;;;;;;;;;5022529;28;20145;-76
2021/09/04 05:57:24;;;;;;;574.03;329.20;;;;;;;;;;4998996;28;20104;-74
2021/09/04 05:59:50;;;;;;;572.92;330.02;;;;;;;;;;5027245;28;20433;-72
2021/09/04 06:02:16;;;;;;;565.15;321.40;;;;;;;;;;5004737;28;20416;-73
2021/09/04 06:04:43;;;;;;;568.15;331.85;;;;;;;;;;5000895;28;20037;-72
2021/09/04 06:07:08;;;;;;;570.10;325.67;;;;;;;;;;5024818;28;20034;-75
2021/09/04 06:09:35;;;;;;;562.05;318.55;;;;;;;;;;5008361;28;20044;-74
2021/09/04 06:12:01;;;;;;;537.45;276.08;;;;;;;;;;5024839;28;20029;-73
2021/09/04 06:14:27;;;;;;;539.70;270.88;;;;;;;;;;5025562;28;20080;-74
2021/09/04 06:16:53;;;;;;;527.00;251.15;;;;;;;;;;5019270;28;20057;-73
2021/09/04 06:19:20;;;;;;;899.55;801.85;;;;;;;;;;5005108;28;20029;-74
2021/09/04 06:21:46;;;;;;;898.55;800.92;;;;;;;;;;5022926;28;20029;-73
2021/09/04 06:24:12;;;;;;;894.22;796.80;;;;;;;;;;5008546;28;20636;-72
2021/09/04 06:26:38;;;;;;;890.65;793.50;;;;;;;;;;5005266;28;20488;-73
2021/09/04 06:29:04;;;;;;;896.65;799.03;;;;;;;;;;5011059;28;20469;-75
2021/09/04 06:31:30;;;;;;;893.80;796.30;;;;;;;;;;5026428;28;20052;-72
2021/09/04 06:33:56;;;;;;;898.85;801.38;;;;;;;;;;5030537;28;20072;-72
2021/09/04 06:36:22;;;;;;;894.22;797.17;;;;;;;;;;5031800;28;20048;-72
2021/09/04 06:38:48;;;;;;;897.08;799.65;;;;;;;;;;5012686;28;20040;-73
2021/09/04 06:41:14;;;;;;;910.33;812.33;;;;;;;;;;5028800;28;20026;-71
2021/09/04 06:43:39;;;;;;;816.30;717.65;;;;;;;;;;5009652;28;20081;-73
2021/09/04 06:46:05;;;;;;;815.47;714.50;;;;;;;;;;5029089;28;20033;-73
2021/09/04 06:48:31;;;;;;;812.15;711.28;;;;;;;;;;5011009;28;20021;-73
2021/09/04 06:50:57;;;;;;;818.35;722.25;;;;;;;;;;5009694;28;20049;-73
2021/09/04 06:53:23;;;;;;;821.22;726.10;;;;;;;;;;5006853;28;20022;-73
2021/09/04 06:55:49;;;;;;;803.13;703.95;;;;;;;;;;5020744;28;20029;-75
2021/09/04 06:58:15;;;;;;;824.22;725.30;;;;;;;;;;5010639;28;20429;-74
2021/09/04 07:00:41;;;;;;;827.03;733.60;;;;;;;;;;5010865;28;20029;-74
2021/09/04 07:03:07;;;;;;;819.15;722.53;;;;;;;;;;5023249;28;20488;-75
2021/09/04 07:05:33;;;;;;;851.35;758.00;;;;;;;;;;5028029;28;20029;-73
2021/09/04 07:07:59;;;;;;;858.88;765.17;;;;;;;;;;5015409;28;20029;-72
2021/09/04 07:10:25;;;;;;;863.58;769.58;;;;;;;;;;5006728;28;20033;-73
2021/09/04 07:12:51;;;;;;;858.55;764.60;;;;;;;;;;5025230;28;20057;-74
2021/09/04 07:15:17;;;;;;;743.88;614.80;;;;;;;;;;5011132;28;20064;-73
2021/09/04 07:17:43;;;;;;;749.35;625.17;;;;;;;;;;5027868;28;20033;-74
2021/09/04 07:20:10;;;;;;;743.95;616.17;;;;;;;;;;5010948;28;20091;-72
2021/09/04 07:22:36;;;;;;;760.60;643.50;;;;;;;;;;5027997;28;20040;-73
2021/09/04 07:25:01;;;;;;;828.75;736.97;;;;;;;;;;5028996;28;20468;-73
2021/09/04 07:27:27;;;;;;;833.58;741.75;;;;;;;;;;5024134;28;20401;-74
2021/09/04 07:29:53;;;;;;;831.42;739.95;;;;;;;;;;5012179;28;20021;-75
2021/09/04 07:32:19;;;;;;;875.13;780.92;;;;;;;;;;5007701;28;20068;-73
2021/09/04 07:34:45;;;;;;;889.97;794.65;;;;;;;;;;5016600;28;20473;-75
2021/09/04 07:37:11;;;;;;;881.63;786.97;;;;;;;;;;5028859;28;20420;-76
2021/09/04 07:39:37;;;;;;;754.28;639.33;;;;;;;;;;5030504;28;20100;-75
2021/09/04 07:42:03;;;;;;;761.83;650.05;;;;;;;;;;5009820;28;20052;-74
2021/09/04 07:44:29;;;;;;;764.05;655.45;;;;;;;;;;5012488;28;20064;-74
2021/09/04 07:46:55;;;;;;;764.90;654.38;;;;;;;;;;5023470;28;20140;-75
2021/09/04 07:49:21;;;;;;;769.63;659.50;;;;;;;;;;5028967;28;20092;-74
2021/09/04 07:51:48;;;;;;;767.10;656.88;;;;;;;;;;5026190;28;20371;-74
2021/09/04 07:54:14;;;;;;;768.50;656.03;;;;;;;;;;5020524;28;20026;-74
2021/09/04 07:56:39;;;;;;;770.00;653.35;;;;;;;;;;5007804;28;20034;-75
2021/09/04 07:59:06;;;;;;;793.58;687.30;;;;;;;;;;5010614;28;20022;-74
2021/09/04 08:01:33;;;;;;;759.92;636.05;;;;;;;;;;5025988;28;20083;-75
2021/09/04 08:03:59;;;;;;;761.85;645.85;;;;;;;;;;5007814;28;20036;-75
2021/09/04 08:06:25;;;;;;;738.40;616.38;;;;;;;;;;5028007;28;20456;-75
2021/09/04 08:08:51;;;;;;;720.38;582.15;;;;;;;;;;5028060;28;20391;-73
2021/09/04 08:11:18;;;;;;;731.75;599.47;;;;;;;;;;5028450;28;20056;-75
2021/09/04 08:13:44;;;;;;;714.17;574.35;;;;;;;;;;5010198;28;20035;-74
2021/09/04 08:16:10;;;;;;;716.75;575.67;;;;;;;;;;5009833;28;20037;-74
2021/09/04 08:18:36;;;;;;;705.70;560.53;;;;;;;;;;5007148;28;20091;-75
2021/09/04 08:21:02;;;;;;;652.72;474.35;;;;;;;;;;5027226;28;20041;-74
2021/09/04 08:23:28;;;;;;;412.55;151.70;;;;;;;;;;5022356;28;20032;-74
2021/09/04 08:25:54;;;;;;;415.63;158.15;;;;;;;;;;5024198;28;20392;-75
2021/09/04 08:28:20;;;;;;;411.17;156.38;;;;;;;;;;5003410;28;20491;-73
2021/09/04 08:30:46;;;;;;;393.25;142.18;;;;;;;;;;5006885;28;20465;-73
2021/09/04 08:33:12;;;;;;;491.83;241.88;;;;;;;;;;5021601;28;20080;-74
2021/09/04 08:35:38;;;;;;;738.03;633.33;;;;;;;;;;5024841;28;20465;-72
2021/09/04 08:38:07;;;;;;;733.85;628.20;;;;;;;;;;5029352;28;20136;-73
2021/09/04 08:40:34;;;;;;;739.00;642.55;;;;;;;;;;5026649;28;20025;-72
2021/09/04 08:43:01;;;;;;;731.40;640.05;;;;;;;;;;5027755;28;20131;-73
2021/09/04 08:45:27;;;;;;;730.60;640.13;;;;;;;;;;5010070;28;20477;-72
2021/09/04 08:47:53;;;;;;;729.35;644.25;;;;;;;;;;5023312;28;20051;-73
2021/09/04 08:50:20;;;;;;;741.50;659.88;;;;;;;;;;5007678;28;20025;-73
2021/09/04 08:52:46;;;;;;;727.33;647.42;;;;;;;;;;5026248;28;20021;-74
2021/09/04 08:55:12;;;;;;;717.10;637.55;;;;;;;;;;5005583;28;20029;-73
2021/09/04 08:57:38;;;;;;;714.17;635.65;;;;;;;;;;5000539;28;20030;-74
2021/09/04 09:00:05;;;;;;;1015.50;915.35;;;;;;;;;;5004826;28;20064;-74
2021/09/04 09:02:30;;;;;;;1049.18;947.08;;;;;;;;;;5009300;28;20120;-74
2021/09/04 09:05:04;;;;;;;1049.15;946.92;;;;;;;;;;5007427;28;20112;-74
2021/09/04 09:07:43;;;;;;;1041.90;939.88;;;;;;;;;;5026805;28;20519;-75
2021/09/04 09:10:21;;;;;;;1041.25;939.50;;;;;;;;;;5024918;28;20029;-73
2021/09/04 09:12:48;;;;;;;1032.68;931.63;;;;;;;;;;5006043;28;20754;-74
2021/09/04 09:15:19;;;;;;;1043.20;941.33;;;;;;;;;;5010200;28;20033;-73
2021/09/04 09:17:56;;;;;;;1037.82;936.35;;;;;;;;;;5016606;28;20851;-74
2021/09/04 09:20:24;;;;;;;1022.85;921.85;;;;;;;;;;5026161;28;20033;-74
2021/09/04 09:22:50;;;;;;;1019.97;919.22;;;;;;;;;;5007323;28;20036;-73
2021/09/04 09:25:16;;;;;;;1024.57;923.10;;;;;;;;;;5007899;28;20037;-72
2021/09/04 09:28:01;;;;;;;1021.53;920.58;;;;;;;;;;4998921;28;20537;-73
2021/09/04 09:30:31;;;;;;;1016.95;916.10;;;;;;;;;;5002175;28;20022;-72
2021/09/04 09:32:57;;;;;;;1017.25;916.65;;;;;;;;;;5029506;28;20030;-73
2021/09/04 09:35:33;;;;;;;1028.70;927.65;;;;;;;;;;5022480;28;20040;-74
2021/09/04 09:37:59;;;;;;;1036.32;934.80;;;;;;;;;;5010768;28;20034;-74
2021/09/04 09:40:25;;;;;;;1033.50;932.38;;;;;;;;;;5010377;28;20028;-73
2021/09/04 09:42:51;;;;;;;1043.38;941.83;;;;;;;;;;5021933;28;20085;-75
2021/09/04 09:45:17;;;;;;;1051.22;949.17;;;;;;;;;;5026965;28;20664;-74
2021/09/04 09:47:50;;;;;;;1053.88;951.78;;;;;;;;;;5028983;28;20354;-76
2021/09/04 09:50:16;;;;;;;1060.95;958.38;;;;;;;;;;5008813;28;20029;-75
2021/09/04 09:52:43;;;;;;;1069.03;966.33;;;;;;;;;;5026771;28;20041;-75
2021/09/04 09:55:09;;;;;;;1066.35;963.92;;;;;;;;;;5008156;28;20481;-75
2021/09/04 09:57:35;;;;;;;1082.70;979.33;;;;;;;;;;5024259;28;20113;-76
2021/09/04 10:00:02;;;;;;;1095.35;991.33;;;;;;;;;;5007248;28;20101;-75
2021/09/04 10:02:28;;;;;;;1106.07;998.75;;;;;;;;;;5009990;28;20514;-75
2021/09/04 10:04:54;;;;;;;1116.60;999.90;;;;;;;;;;5012932;28;20504;-75
2021/09/04 10:07:20;;;;;;;1121.78;999.90;;;;;;;;;;5030172;28;20045;-75
2021/09/04 10:09:46;;;;;;;1133.32;999.90;;;;;;;;;;5012825;28;20025;-75
2021/09/04 10:12:12;;;;;;;1140.68;999.90;;;;;;;;;;5011976;28;20025;-75
2021/09/04 10:14:38;;;;;;;1147.85;999.90;;;;;;;;;;5012198;28;20043;-76
2021/09/04 10:17:05;;;;;;;1154.50;999.90;;;;;;;;;;5027004;28;20120;-76
2021/09/04 10:19:33;;;;;;;1154.10;999.90;;;;;;;;;;5012582;28;20037;-76
2021/09/04 10:22:00;;;;;;;1161.07;999.90;;;;;;;;;;5012090;28;20057;-75
2021/09/04 10:24:44;;;;;;;1177.13;999.90;;;;;;;;;;5012614;28;20033;-75
2021/09/04 10:27:11;;;;;;;1174.80;999.90;;;;;;;;;;5009987;28;20037;-76
2021/09/04 10:29:55;;;;;;;1175.43;999.90;;;;;;;;;;5030121;28;20478;-76
2021/09/04 10:32:21;;;;;;;1171.95;999.90;;;;;;;;;;5011851;28;20033;-75
2021/09/04 10:34:48;;;;;;;1174.85;999.90;;;;;;;;;;5029420;28;20021;-75
2021/09/04 10:37:14;;;;;;;1163.28;999.90;;;;;;;;;;5011720;28;20052;-75
2021/09/04 10:39:49;;;;;;;1154.95;999.90;;;;;;;;;;5012085;28;20022;-75
2021/09/04 10:42:16;;;;;;;1142.28;999.90;;;;;;;;;;5011300;28;20527;-76
2021/09/04 10:44:43;;;;;;;1137.18;999.90;;;;;;;;;;5030005;28;20037;-75
2021/09/04 10:47:10;;;;;;;1135.38;999.90;;;;;;;;;;5029762;28;20026;-75
2021/09/04 10:49:44;;;;;;;1139.32;999.90;;;;;;;;;;5029107;28;20032;-75
2021/09/04 10:52:10;;;;;;;1146.40;999.90;;;;;;;;;;5024686;28;20017;-76
2021/09/04 10:54:55;;;;;;;1156.47;999.90;;;;;;;;;;5024448;28;20359;-76
2021/09/04 10:57:21;;;;;;;1154.00;999.90;;;;;;;;;;5023111;28;20032;-75
2021/09/04 10:59:59;;;;;;;1178.95;999.90;;;;;;;;;;5028915;28;20619;-75
2021/09/04 11:02:44;;;;;;;879.08;798.35;;;;;;;;;;5013346;28;20400;-76
2021/09/04 11:05:25;;;;;;;480.38;317.83;;;;;;;;;;5024763;28;20100;-75
2021/09/04 11:08:04;;;;;;;1171.55;999.90;;;;;;;;;;5025906;28;20084;-75
2021/09/04 11:10:31;;;;;;;1174.03;999.90;;;;;;;;;;5027617;28;20044;-75
2021/09/04 11:13:06;;;;;;;1155.38;999.90;;;;;;;;;;5008981;28;20124;-76
2021/09/04 11:15:34;;;;;;;1103.43;999.90;;;;;;;;;;5023331;28;20302;-74
2021/09/04 11:18:00;;;;;;;1121.47;999.65;;;;;;;;;;5022591;28;20037;-74
2021/09/04 11:20:26;;;;;;;852.63;768.67;;;;;;;;;;5025090;28;20033;-77
2021/09/04 11:22:52;;;;;;;1143.90;999.90;;;;;;;;;;5031549;28;20120;-75
2021/09/04 11:25:22;;;;;;;1022.63;929.42;;;;;;;;;;5029617;28;20029;-76
2021/09/04 11:27:48;;;;;;;939.17;852.28;;;;;;;;;;5029665;28;20462;-76
2021/09/04 11:30:17;;;;;;;900.17;816.17;;;;;;;;;;5030214;28;20028;-75
2021/09/04 11:32:44;;;;;;;971.42;881.88;;;;;;;;;;5022261;28;20026;-76
2021/09/04 11:35:10;;;;;;;1085.55;986.42;;;;;;;;;;5025764;28;20022;-77
2021/09/04 11:37:40;;;;;;;983.97;894.28;;;;;;;;;;5019680;28;20529;-77
2021/09/04 11:40:06;;;;;;;;;;;;;;;;;;5010456;28;20036;-75
2021/09/04 11:42:33;;;;;;;1061.40;964.35;;;;;;;;;;5026704;28;19917;-74
2021/09/04 11:45:09;;;;;;;1169.95;999.90;;;;;;;;;;5000948;28;20063;-76
2021/09/04 11:47:36;;;;;;;1196.57;999.90;;;;;;;;;;5010002;28;20021;-75
2021/09/04 11:50:05;;;;;;;1200.47;999.90;;;;;;;;;;5008574;28;20040;-75
2021/09/04 11:52:32;;;;;;;1216.30;999.90;;;;;;;;;;5008599;28;20021;-76
2021/09/04 11:55:03;;;;;;;1221.30;999.90;;;;;;;;;;5003190;28;20021;-76
2021/09/04 11:57:30;;;;;;;1240.20;999.90;;;;;;;;;;5007432;28;20033;-73
2021/09/04 11:59:56;;;;;;;1234.43;999.90;;;;;;;;;;5003606;28;20306;-76
2021/09/04 12:02:23;;;;;;;1244.47;999.90;;;;;;;;;;5028384;28;20484;-75
2021/09/04 12:04:49;;;;;;;1250.38;999.90;;;;;;;;;;5010668;28;20393;-75
2021/09/04 12:07:15;;;;;;;1261.05;999.90;;;;;;;;;;4997032;28;20048;-75
2021/09/04 12:09:41;;;;;;;1274.47;999.90;;;;;;;;;;5006421;28;20393;-76
2021/09/04 12:12:08;;;;;;;1288.80;999.90;;;;;;;;;;5000632;28;20025;-75
2021/09/04 12:14:34;;;;;;;1287.95;999.90;;;;;;;;;;5024243;28;20274;-75
2021/09/04 12:17:00;;;;;;;1294.28;999.90;;;;;;;;;;5005263;28;20034;-75
2021/09/04 12:19:26;;;;;;;1310.65;999.90;;;;;;;;;;5004751;28;20041;-76
2021/09/04 12:21:53;;;;;;;1329.22;999.90;;;;;;;;;;5007574;28;20104;-75
2021/09/04 12:24:29;;;;;;;1335.15;999.90;;;;;;;;;;5027589;28;20021;-75
2021/09/04 12:26:55;;;;;;;1347.63;999.90;;;;;;;;;;5024219;28;20034;-76
2021/09/04 12:29:27;;;;;;;1348.32;999.90;;;;;;;;;;5010245;28;20027;-75
2021/09/04 12:32:03;;;;;;;1349.57;999.90;;;;;;;;;;5007932;28;20120;-76
2021/09/04 12:34:29;;;;;;;1338.03;999.90;;;;;;;;;;5005323;28;20017;-75
2021/09/04 12:36:55;;;;;;;1315.97;999.90;;;;;;;;;;5004686;28;20153;-76
2021/09/04 12:39:22;;;;;;;1294.90;999.90;;;;;;;;;;5008713;28;20022;-75
2021/09/04 12:41:48;;;;;;;1268.57;999.90;;;;;;;;;;5008008;28;20045;-74
2021/09/04 12:44:16;;;;;;;1242.85;999.90;;;;;;;;;;5009137;28;20029;-75
2021/09/04 12:46:52;;;;;;;1227.40;999.90;;;;;;;;;;5023005;28;20117;-76
2021/09/04 12:49:19;;;;;;;1214.95;999.90;;;;;;;;;;5025636;28;20366;-76
2021/09/04 12:51:46;;;;;;;1202.55;999.90;;;;;;;;;;5027483;28;20087;-76
2021/09/04 12:54:12;;;;;;;1200.78;999.90;;;;;;;;;;5007102;28;20417;-76
2021/09/04 12:56:39;;;;;;;1208.30;999.90;;;;;;;;;;5005278;28;20029;-76
2021/09/04 12:59:07;;;;;;;1202.47;999.90;;;;;;;;;;5023553;28;20079;-75
2021/09/04 13:01:33;;;;;;;1187.18;999.90;;;;;;;;;;5003013;28;20068;-76
2021/09/04 13:04:03;;;;;;;1183.03;999.90;;;;;;;;;;5019405;28;20034;-75
2021/09/04 13:06:30;;;;;;;1185.30;999.90;;;;;;;;;;5022793;28;20052;-76
2021/09/04 13:08:56;;;;;;;1167.10;999.90;;;;;;;;;;5005699;28;20400;-75
2021/09/04 13:11:22;;;;;;;1159.35;999.90;;;;;;;;;;5025804;28;20021;-76
2021/09/04 13:13:48;;;;;;;1161.35;999.90;;;;;;;;;;5008678;28;20045;-76
2021/09/04 13:16:14;;;;;;;1163.22;999.90;;;;;;;;;;5007405;28;20033;-76
2021/09/04 13:18:42;;;;;;;1152.93;999.90;;;;;;;;;;4999324;28;20029;-75
2021/09/04 13:21:08;;;;;;;1151.63;999.90;;;;;;;;;;5002727;28;20048;-75
2021/09/04 13:23:34;;;;;;;1142.68;999.90;;;;;;;;;;5025114;28;20458;-75
2021/09/04 13:26:00;;;;;;;1151.53;999.90;;;;;;;;;;5008565;28;20065;-76
2021/09/04 13:28:26;;;;;;;1153.43;999.90;;;;;;;;;;5010097;28;20022;-76
2021/09/04 13:30:52;;;;;;;1156.13;999.90;;;;;;;;;;5028192;28;20034;-75
2021/09/04 13:33:17;;;;;;;1161.90;999.90;;;;;;;;;;5009502;28;20513;-75
2021/09/04 13:35:43;;;;;;;1145.68;999.90;;;;;;;;;;5007942;28;20025;-76
2021/09/04 13:38:09;;;;;;;1152.00;999.90;;;;;;;;;;5021605;28;20261;-76
2021/09/04 13:40:35;;;;;;;1152.72;999.90;;;;;;;;;;5012213;28;20037;-75
2021/09/04 13:43:01;;;;;;;1158.72;999.90;;;;;;;;;;5013054;28;20041;-75
2021/09/04 13:45:28;;;;;;;1150.22;999.90;;;;;;;;;;5012597;28;20377;-76
2021/09/04 13:47:56;;;;;;;1156.45;999.90;;;;;;;;;;5010998;28;20017;-76